Etusivu
METAR-TAF:

METAR-TAF

Lentoasemat :

Beaumont, Texas, Yhdysvallat

Leveyspiiri: 30-04-13N, Pituuspiiri: 094-12-54W, korkeus merenpinnasta: 10 m

Tämänhetkinen sää

Tämä raportti tehtiin 22 minuuttia sitten, kello 15.55 UTC
tyyntä
Lämpötila 21°C
Kosteus 100%
Ilmanpaine 1017 hPa
Näkyvyys: 2.4 km
Pilvistä 300 ft:n korkeudessa
utua

METAR: KBMT 011555Z AUTO 00000KT 1 1/2SM BR OVC003 21/21 A3002 RMK AO2 T02100206

Aika: 09:17 (16:17 UTC)


TAF: puuttuu

Säähavainnot ja -ennusteet yli 4000 lentoasemalta (METAR- ja TAF-raportit).

Käytössä olevat sääasemat on merkitty karttaan keltaisilla ja punaisilla pisteillä.

Aseta hiiri pisteen päälle nähdäksesi sääaseman nimen.

Klikkaa sitten nähdäksesi säähavainnot ja -ennusteet.

Kartan vaihtaminen: klikkaa mustalla rastilla varustettuja vihreitä pisteitä, niin voit zoomata sisään; viivalla varustettua vihreää pistettä, niin voit zoomata ulos tai vihreitä nuolia, niin pääset viereisille kartoille.


METAR-TAF: